createdAt,value
2023-06-04T00:01:48.219Z,10.47
2023-06-04T00:04:15.941Z,10.58
2023-06-04T00:06:43.374Z,10.61
2023-06-04T00:09:11.149Z,10.57
2023-06-04T00:11:38.645Z,10.53
2023-06-04T00:14:06.036Z,10.49
2023-06-04T00:16:36.486Z,10.43
2023-06-04T00:19:03.962Z,10.40
2023-06-04T00:21:31.297Z,10.36
2023-06-04T00:23:58.957Z,10.30
2023-06-04T00:26:26.666Z,10.27
2023-06-04T00:28:55.804Z,10.22
2023-06-04T00:31:23.306Z,10.16
2023-06-04T00:33:50.724Z,10.11
2023-06-04T00:36:18.093Z,10.06
2023-06-04T00:38:45.621Z,10.02
2023-06-04T00:41:13.503Z,9.98
2023-06-04T00:43:40.971Z,9.94
2023-06-04T00:46:08.474Z,9.92
2023-06-04T00:48:38.177Z,9.88
2023-06-04T00:51:05.973Z,9.82
2023-06-04T00:53:33.937Z,9.79
2023-06-04T00:56:01.253Z,9.77
2023-06-04T00:58:28.747Z,9.78
2023-06-04T01:00:56.394Z,9.77
2023-06-04T01:03:24.081Z,9.73
2023-06-04T01:06:05.505Z,9.72
2023-06-04T01:09:29.977Z,9.72
2023-06-04T01:12:00.460Z,9.71
2023-06-04T01:14:27.998Z,9.70
2023-06-04T01:17:19.296Z,9.69
2023-06-04T01:20:24.303Z,9.66
2023-06-04T01:22:57.798Z,9.82
2023-06-04T01:25:35.065Z,9.87
2023-06-04T01:28:04.460Z,9.83
2023-06-04T01:30:33.645Z,9.78
2023-06-04T01:33:01.565Z,9.75
2023-06-04T01:35:29.565Z,9.73
2023-06-04T01:37:57.259Z,9.69
2023-06-04T01:40:24.891Z,9.63
2023-06-04T01:42:52.408Z,9.60
2023-06-04T01:45:19.784Z,9.57
2023-06-04T01:47:47.804Z,9.55
2023-06-04T01:50:15.246Z,9.53
2023-06-04T01:52:42.600Z,9.54
2023-06-04T01:55:13.355Z,9.53
2023-06-04T01:57:41.723Z,9.49
2023-06-04T02:00:11.559Z,9.48
2023-06-04T02:02:43.599Z,9.46
2023-06-04T02:05:11.422Z,9.45
2023-06-04T02:07:40.026Z,9.46
2023-06-04T02:10:10.790Z,9.44
2023-06-04T02:12:39.325Z,9.43
2023-06-04T02:15:08.553Z,9.44
2023-06-04T02:17:42.239Z,9.46
2023-06-04T02:20:10.971Z,9.48
2023-06-04T02:22:38.886Z,9.50
2023-06-04T02:25:06.691Z,9.52
2023-06-04T02:27:34.094Z,9.64
2023-06-04T02:30:01.581Z,9.77
2023-06-04T02:32:30.176Z,9.80
2023-06-04T02:34:57.815Z,9.82
2023-06-04T02:37:25.744Z,9.85
2023-06-04T02:39:53.159Z,9.88
2023-06-04T02:42:20.519Z,9.91
2023-06-04T02:44:47.850Z,9.93
2023-06-04T02:47:15.414Z,9.95
2023-06-04T02:49:43.214Z,9.97
2023-06-04T02:52:10.576Z,9.98
2023-06-04T02:54:37.937Z,10.02
2023-06-04T02:57:05.727Z,10.03
2023-06-04T02:59:33.723Z,10.07
2023-06-04T03:02:01.419Z,10.08
2023-06-04T03:04:35.638Z,10.09
2023-06-04T03:07:03.764Z,10.09
2023-06-04T03:09:34.745Z,10.10
2023-06-04T03:12:03.180Z,10.13
2023-06-04T03:14:34.292Z,10.17
2023-06-04T03:17:02.673Z,10.21
2023-06-04T03:19:30.008Z,10.26
2023-06-04T03:21:58.117Z,10.32
2023-06-04T03:24:25.687Z,10.39
2023-06-04T03:26:53.051Z,10.45
2023-06-04T03:29:20.445Z,10.53
2023-06-04T03:31:49.295Z,10.60
2023-06-04T03:34:16.740Z,10.67
2023-06-04T03:36:44.371Z,10.75
2023-06-04T03:39:12.598Z,10.83
2023-06-04T03:41:40.091Z,10.92
2023-06-04T03:44:31.132Z,11.02
2023-06-04T03:47:23.928Z,11.13
2023-06-04T03:49:51.614Z,11.24
2023-06-04T03:52:19.843Z,11.35
2023-06-04T03:54:47.480Z,11.45
2023-06-04T03:57:14.938Z,11.56
2023-06-04T03:59:42.322Z,11.67
2023-06-04T04:02:10.022Z,11.78
2023-06-04T04:04:40.560Z,11.90
2023-06-04T04:07:08.847Z,12.01
2023-06-04T04:09:37.298Z,12.11
2023-06-04T04:12:05.518Z,12.23
2023-06-04T04:14:34.253Z,12.34
2023-06-04T04:17:02.718Z,12.45
2023-06-04T04:19:32.192Z,12.56
2023-06-04T04:21:59.891Z,12.69
2023-06-04T04:24:28.381Z,12.81
2023-06-04T04:27:00.103Z,12.94
2023-06-04T04:29:28.852Z,13.10
2023-06-04T04:31:57.584Z,13.30
2023-06-04T04:34:27.530Z,13.49
2023-06-04T04:36:55.270Z,13.72
2023-06-04T04:39:24.282Z,13.91
2023-06-04T04:41:52.773Z,14.11
2023-06-04T04:44:20.933Z,14.29
2023-06-04T04:46:51.453Z,14.45
2023-06-04T04:49:19.176Z,14.62
2023-06-04T04:51:46.998Z,14.75
2023-06-04T04:54:14.872Z,14.84
2023-06-04T04:56:42.403Z,14.91
2023-06-04T04:59:09.766Z,15.07
2023-06-04T05:01:37.246Z,15.29
2023-06-04T05:04:09.538Z,15.46
2023-06-04T05:06:39.157Z,15.58
2023-06-04T05:09:08.706Z,15.69
2023-06-04T05:11:36.959Z,15.76
2023-06-04T05:14:05.146Z,15.80
2023-06-04T05:16:32.900Z,15.83
2023-06-04T05:19:01.631Z,15.87
2023-06-04T05:21:30.826Z,15.93
2023-06-04T05:27:16.786Z,15.99
2023-06-04T05:29:44.648Z,15.99
2023-06-04T05:32:12.512Z,15.97
2023-06-04T05:34:41.008Z,15.89
2023-06-04T05:37:12.289Z,15.84
2023-06-04T05:39:40.822Z,15.78
2023-06-04T05:42:12.709Z,15.79
2023-06-04T05:44:41.049Z,15.81
2023-06-04T05:47:09.142Z,15.82
2023-06-04T05:49:36.866Z,15.82
2023-06-04T05:52:05.169Z,15.84
2023-06-04T05:54:34.042Z,15.85
2023-06-04T05:57:02.081Z,15.81
2023-06-04T05:59:30.684Z,15.80
2023-06-04T06:01:58.645Z,15.84
2023-06-04T06:04:26.895Z,15.88
2023-06-04T06:06:54.813Z,15.89
2023-06-04T06:09:22.863Z,15.86
2023-06-04T06:11:50.731Z,15.86
2023-06-04T06:14:18.218Z,15.89
2023-06-04T06:16:46.335Z,15.93
2023-06-04T06:19:14.302Z,15.94
2023-06-04T06:21:41.917Z,15.91
2023-06-04T06:24:09.676Z,15.93
2023-06-04T06:26:38.328Z,16.00
2023-06-04T06:29:07.203Z,16.08
2023-06-04T06:31:34.993Z,16.19
2023-06-04T06:34:02.699Z,16.25
2023-06-04T06:36:31.019Z,16.31
2023-06-04T06:38:58.618Z,16.38
2023-06-04T06:41:27.312Z,16.42
2023-06-04T06:43:54.763Z,16.41
2023-06-04T06:46:22.224Z,16.42
2023-06-04T06:48:49.889Z,16.44
2023-06-04T06:51:17.780Z,16.44
2023-06-04T06:53:45.215Z,16.44
2023-06-04T06:56:12.677Z,16.48
2023-06-04T06:58:40.168Z,16.48
2023-06-04T07:01:07.797Z,16.43
2023-06-04T07:03:35.707Z,16.38
2023-06-04T07:06:03.614Z,16.29
2023-06-04T07:08:30.982Z,16.20
2023-06-04T07:10:58.998Z,16.15
2023-06-04T07:13:26.915Z,16.14
2023-06-04T07:15:54.449Z,16.12
2023-06-04T07:18:21.925Z,16.16
2023-06-04T07:20:49.404Z,16.23
2023-06-04T07:23:24.670Z,16.31
2023-06-04T07:25:55.738Z,16.40
2023-06-04T07:28:23.781Z,16.44
2023-06-04T07:30:51.457Z,16.44
2023-06-04T07:33:19.246Z,16.39
2023-06-04T07:35:46.580Z,16.41
2023-06-04T07:38:14.016Z,16.47
2023-06-04T07:40:41.621Z,16.55
2023-06-04T07:43:09.008Z,16.62
2023-06-04T07:45:36.497Z,16.67
2023-06-04T07:48:04.529Z,16.73
2023-06-04T07:50:34.674Z,16.78
2023-06-04T07:53:03.821Z,16.85
2023-06-04T07:55:32.955Z,16.92
2023-06-04T07:58:00.345Z,17.00
2023-06-04T08:00:27.759Z,17.08
2023-06-04T08:02:55.286Z,17.15
2023-06-04T08:05:22.788Z,17.20
2023-06-04T08:07:50.196Z,17.24
2023-06-04T08:10:17.700Z,17.21
2023-06-04T08:12:45.095Z,17.17
2023-06-04T08:15:13.003Z,17.20
2023-06-04T08:17:40.534Z,17.27
2023-06-04T08:20:08.291Z,17.34
2023-06-04T08:22:36.882Z,17.42
2023-06-04T08:25:06.005Z,17.51
2023-06-04T08:27:33.464Z,17.55
2023-06-04T08:30:01.307Z,17.56
2023-06-04T08:32:28.975Z,17.57
2023-06-04T08:34:56.511Z,17.67
2023-06-04T08:37:26.014Z,17.84
2023-06-04T08:39:54.209Z,18.01
2023-06-04T08:42:31.860Z,18.15
2023-06-04T08:44:59.475Z,18.32
2023-06-04T08:47:29.826Z,18.40
2023-06-04T08:50:00.870Z,18.46
2023-06-04T08:52:28.699Z,18.48
2023-06-04T08:54:56.904Z,18.52
2023-06-04T08:57:24.478Z,18.70
2023-06-04T08:59:51.902Z,18.96
2023-06-04T09:02:19.432Z,19.19
2023-06-04T09:04:47.101Z,19.42
2023-06-04T09:07:14.755Z,19.66
2023-06-04T09:09:44.188Z,19.88
2023-06-04T09:12:13.056Z,20.17
2023-06-04T09:14:40.552Z,20.51
2023-06-04T09:17:08.027Z,20.85
2023-06-04T09:19:35.590Z,21.28
2023-06-04T09:22:04.012Z,21.85
2023-06-04T09:24:42.980Z,22.35
2023-06-04T09:27:15.421Z,22.71
2023-06-04T09:29:52.580Z,23.18
2023-06-04T09:32:27.893Z,23.82
2023-06-04T09:34:59.776Z,24.45
2023-06-04T09:37:28.023Z,24.84
2023-06-04T09:39:58.611Z,25.38
2023-06-04T09:42:26.080Z,25.83
2023-06-04T09:44:53.609Z,26.19
2023-06-04T09:47:21.761Z,26.64
2023-06-04T09:49:52.514Z,27.09
2023-06-04T09:52:22.399Z,27.42
2023-06-04T09:54:49.883Z,27.42
2023-06-04T09:57:20.585Z,27.42
2023-06-04T09:59:50.887Z,27.51
2023-06-04T10:02:22.594Z,27.66
2023-06-04T10:04:59.613Z,27.81
2023-06-04T10:07:27.424Z,27.70
2023-06-04T10:09:54.895Z,27.53
2023-06-04T10:12:31.553Z,27.48
2023-06-04T10:15:17.600Z,27.59
2023-06-04T10:17:45.010Z,27.95
2023-06-04T10:20:12.477Z,28.51
2023-06-04T10:22:40.060Z,29.18
2023-06-04T10:25:08.061Z,29.50
2023-06-04T10:27:37.180Z,29.80
2023-06-04T10:30:06.762Z,30.33
2023-06-04T10:32:37.571Z,30.80
2023-06-04T10:35:09.311Z,31.03
2023-06-04T10:37:37.141Z,31.27
2023-06-04T10:40:07.286Z,31.58
2023-06-04T10:42:43.059Z,32.02
2023-06-04T10:45:13.640Z,32.43
2023-06-04T10:47:42.426Z,32.90
2023-06-04T10:50:14.876Z,33.10
2023-06-04T10:52:54.815Z,32.60
2023-06-04T10:55:22.482Z,31.57
2023-06-04T10:57:58.617Z,30.88
2023-06-04T11:00:55.559Z,30.26
2023-06-04T11:03:23.140Z,29.91
2023-06-04T11:05:51.830Z,30.12
2023-06-04T11:08:29.935Z,30.73
2023-06-04T11:10:57.347Z,31.14
2023-06-04T11:13:27.082Z,31.58
2023-06-04T11:15:54.990Z,32.05
2023-06-04T11:18:25.253Z,32.34
2023-06-04T11:21:02.978Z,32.52
2023-06-04T11:23:30.610Z,32.81
2023-06-04T11:25:59.445Z,33.22
2023-06-04T11:28:26.970Z,33.46
2023-06-04T11:31:04.524Z,33.68
2023-06-04T11:33:45.964Z,33.36
2023-06-04T11:36:26.327Z,32.99
2023-06-04T11:38:58.806Z,33.02
2023-06-04T11:41:31.249Z,33.53
2023-06-04T11:43:58.879Z,34.10
2023-06-04T11:46:27.449Z,34.61
2023-06-04T11:48:55.048Z,34.83
2023-06-04T11:51:22.594Z,35.04
2023-06-04T11:53:50.014Z,34.89
2023-06-04T11:56:17.521Z,35.03
2023-06-04T11:58:46.808Z,35.34
2023-06-04T12:01:14.535Z,35.56
2023-06-04T12:03:42.837Z,35.43
2023-06-04T12:06:18.532Z,34.86
2023-06-04T12:08:50.481Z,34.68
2023-06-04T12:11:36.022Z,34.54
2023-06-04T12:14:07.187Z,34.35
2023-06-04T12:16:37.857Z,34.15
2023-06-04T12:19:08.979Z,33.87
2023-06-04T12:21:36.532Z,33.33
2023-06-04T12:24:08.784Z,32.79
2023-06-04T12:26:38.995Z,32.67
2023-06-04T12:29:14.605Z,32.96
2023-06-04T12:31:44.190Z,33.09
2023-06-04T12:34:12.872Z,32.44
2023-06-04T12:36:40.425Z,31.63
2023-06-04T12:39:08.100Z,31.47
2023-06-04T12:41:35.711Z,31.80
2023-06-04T12:44:03.301Z,32.35
2023-06-04T12:46:30.859Z,32.99
2023-06-04T12:48:58.411Z,33.58
2023-06-04T12:51:25.974Z,34.24
2023-06-04T12:53:54.219Z,35.08
2023-06-04T12:56:21.570Z,35.86
2023-06-04T12:58:49.269Z,36.59
2023-06-04T13:01:17.028Z,37.18
2023-06-04T13:03:44.884Z,37.32
2023-06-04T13:06:12.563Z,37.32
2023-06-04T13:08:40.003Z,37.37
2023-06-04T13:11:07.847Z,37.58
2023-06-04T13:13:35.788Z,37.91
2023-06-04T13:16:03.781Z,38.23
2023-06-04T13:18:31.239Z,38.15
2023-06-04T13:20:58.675Z,37.76
2023-06-04T13:23:34.323Z,37.09
2023-06-04T13:27:09.209Z,35.88
2023-06-04T13:29:36.713Z,34.60
2023-06-04T13:32:05.163Z,33.41
2023-06-04T13:34:33.340Z,32.44
2023-06-04T13:37:00.858Z,31.42
2023-06-04T13:39:28.413Z,30.29
2023-06-04T13:41:55.813Z,28.96
2023-06-04T13:44:27.418Z,27.76
2023-06-04T13:46:55.163Z,26.78
2023-06-04T13:49:22.572Z,26.17
2023-06-04T13:51:50.174Z,25.59
2023-06-04T13:54:17.728Z,25.00
2023-06-04T13:56:45.231Z,24.54
2023-06-04T13:59:12.754Z,24.13
2023-06-04T14:01:41.334Z,23.82
2023-06-04T14:04:08.907Z,23.61
2023-06-04T14:06:37.371Z,23.41
2023-06-04T14:09:08.228Z,23.33
2023-06-04T14:11:36.186Z,23.31
2023-06-04T14:14:03.688Z,23.18
2023-06-04T14:16:31.300Z,22.95
2023-06-04T14:18:58.856Z,22.71
2023-06-04T14:21:27.445Z,22.46
2023-06-04T14:23:55.018Z,22.22
2023-06-04T14:26:23.644Z,22.03
2023-06-04T14:28:51.027Z,21.84
2023-06-04T14:31:18.478Z,21.67
2023-06-04T14:33:45.957Z,21.51
2023-06-04T14:36:13.383Z,21.42
2023-06-04T14:38:40.897Z,21.34
2023-06-04T14:41:08.597Z,21.28
2023-06-04T14:43:36.472Z,21.24
2023-06-04T14:46:04.313Z,21.22
2023-06-04T14:48:31.774Z,21.16
2023-06-04T14:50:59.215Z,21.11
2023-06-04T14:53:26.784Z,21.06
2023-06-04T14:55:54.258Z,20.99
2023-06-04T14:58:21.740Z,20.87
2023-06-04T15:00:49.236Z,20.74
2023-06-04T15:03:16.856Z,20.68
2023-06-04T15:05:44.679Z,20.65
2023-06-04T15:08:12.130Z,20.65
2023-06-04T15:10:39.462Z,20.67
2023-06-04T15:13:07.002Z,20.69
2023-06-04T15:15:34.631Z,20.64
2023-06-04T15:18:02.330Z,20.57
2023-06-04T15:20:29.964Z,20.53
2023-06-04T15:22:57.373Z,20.49
2023-06-04T15:25:24.881Z,20.45
2023-06-04T15:27:52.322Z,20.41
2023-06-04T15:30:21.746Z,20.36
2023-06-04T15:32:49.315Z,20.30
2023-06-04T15:35:17.038Z,20.24
2023-06-04T15:37:44.436Z,20.19
2023-06-04T15:40:12.158Z,20.17
2023-06-04T15:42:39.628Z,20.18
2023-06-04T15:45:08.178Z,20.17
2023-06-04T15:47:35.692Z,20.15
2023-06-04T15:50:03.542Z,20.16
2023-06-04T15:52:31.200Z,20.18
2023-06-04T15:54:58.804Z,20.18
2023-06-04T15:57:26.753Z,20.16
2023-06-04T15:59:54.329Z,20.12
2023-06-04T16:02:21.713Z,20.08
2023-06-04T16:04:49.099Z,20.03
2023-06-04T16:07:16.765Z,20.01
2023-06-04T16:09:44.414Z,19.98
2023-06-04T16:12:12.021Z,19.94
2023-06-04T16:14:39.568Z,19.90
2023-06-04T16:17:07.323Z,19.87
2023-06-04T16:19:35.042Z,19.87
2023-06-04T16:22:02.487Z,19.87
2023-06-04T16:24:31.189Z,19.84
2023-06-04T16:26:58.680Z,19.82
2023-06-04T16:29:26.205Z,19.80
2023-06-04T16:31:53.804Z,19.78
2023-06-04T16:34:21.221Z,19.75
2023-06-04T16:36:48.818Z,19.73
2023-06-04T16:39:16.536Z,19.73
2023-06-04T16:41:43.993Z,19.73
2023-06-04T16:44:11.396Z,19.73
2023-06-04T16:46:38.929Z,19.74
2023-06-04T16:49:06.356Z,19.73
2023-06-04T16:51:33.761Z,19.70
2023-06-04T16:54:01.301Z,19.68
2023-06-04T16:56:29.012Z,19.65
2023-06-04T16:58:56.468Z,19.63
2023-06-04T17:01:24.034Z,19.61
2023-06-04T17:03:52.924Z,19.58
2023-06-04T17:06:21.349Z,19.56
2023-06-04T17:08:48.903Z,19.52
2023-06-04T17:11:16.298Z,19.49
2023-06-04T17:13:44.019Z,19.45
2023-06-04T17:16:11.497Z,19.41
2023-06-04T17:18:39.163Z,19.37
2023-06-04T17:21:06.674Z,19.33
2023-06-04T17:23:34.086Z,19.30
2023-06-04T17:26:01.932Z,19.26
2023-06-04T17:28:29.486Z,19.21
2023-06-04T17:30:57.045Z,19.17
2023-06-04T17:33:24.574Z,19.11
2023-06-04T17:35:52.115Z,19.05
2023-06-04T17:38:19.572Z,18.98
2023-06-04T17:40:47.042Z,18.93
2023-06-04T17:43:14.496Z,18.86
2023-06-04T17:45:42.736Z,18.79
2023-06-04T17:48:10.176Z,18.71
2023-06-04T17:50:37.607Z,18.63
2023-06-04T17:53:05.081Z,18.58
2023-06-04T17:55:32.466Z,18.53
2023-06-04T17:57:59.842Z,18.49
2023-06-04T18:00:27.382Z,18.45
2023-06-04T18:02:54.789Z,18.43
2023-06-04T18:05:22.250Z,18.40
2023-06-04T18:07:51.189Z,18.38
2023-06-04T18:10:18.661Z,18.34
2023-06-04T18:12:46.909Z,18.28
2023-06-04T18:15:17.244Z,18.24
2023-06-04T18:17:44.776Z,18.18
2023-06-04T18:20:12.357Z,18.12
2023-06-04T18:22:40.226Z,18.05
2023-06-04T18:25:09.140Z,17.98
2023-06-04T18:27:37.204Z,17.91
2023-06-04T18:30:05.853Z,17.84
2023-06-04T18:32:33.453Z,17.77
2023-06-04T18:35:01.416Z,17.71
2023-06-04T18:37:29.439Z,17.65
2023-06-04T18:39:57.122Z,17.58
2023-06-04T18:42:30.793Z,17.53
2023-06-04T18:45:01.000Z,17.46
2023-06-04T18:47:28.680Z,17.38
2023-06-04T18:49:56.922Z,17.29
2023-06-04T18:52:24.442Z,17.20
2023-06-04T18:54:51.828Z,17.11
2023-06-04T18:57:19.365Z,17.06
2023-06-04T18:59:46.825Z,17.03
2023-06-04T19:02:15.374Z,17.00
2023-06-04T19:04:42.783Z,16.97
2023-06-04T19:07:10.321Z,16.93
2023-06-04T19:09:37.931Z,16.90
2023-06-04T19:12:05.665Z,16.86
2023-06-04T19:14:34.702Z,16.81
2023-06-04T19:17:03.412Z,16.76
2023-06-04T19:19:31.203Z,16.72
2023-06-04T19:21:59.495Z,16.68
2023-06-04T19:24:27.107Z,16.64
2023-06-04T19:26:54.607Z,16.63
2023-06-04T19:29:21.968Z,16.59
2023-06-04T19:31:49.621Z,16.56
2023-06-04T19:34:17.338Z,16.52
2023-06-04T19:36:44.821Z,16.47
2023-06-04T19:39:12.236Z,16.44
2023-06-04T19:41:39.615Z,16.40
2023-06-04T19:44:07.201Z,16.38
2023-06-04T19:46:34.662Z,16.37
2023-06-04T19:49:02.537Z,16.34
2023-06-04T19:51:30.060Z,16.32
2023-06-04T19:53:57.752Z,16.30
2023-06-04T19:56:26.809Z,16.28
2023-06-04T19:58:54.324Z,16.24
2023-06-04T20:01:38.380Z,16.23
2023-06-04T20:04:09.785Z,16.20
2023-06-04T20:06:37.741Z,16.21
2023-06-04T20:09:05.598Z,16.22
2023-06-04T20:11:33.174Z,16.22
2023-06-04T20:14:02.543Z,16.22
2023-06-04T20:16:30.948Z,16.22
2023-06-04T20:18:58.823Z,16.22
2023-06-04T20:21:26.360Z,16.21
2023-06-04T20:24:02.238Z,16.20
2023-06-04T20:26:29.933Z,16.22
2023-06-04T20:28:57.617Z,16.23
2023-06-04T20:31:27.411Z,16.24
2023-06-04T20:33:58.351Z,16.27
2023-06-04T20:36:26.111Z,16.30
2023-06-04T20:38:53.736Z,16.35
2023-06-04T20:41:25.584Z,16.37
2023-06-04T20:43:54.805Z,16.37
2023-06-04T20:46:22.414Z,16.36
2023-06-04T20:48:49.983Z,16.28
2023-06-04T20:51:17.509Z,16.22
2023-06-04T20:53:49.042Z,16.17
2023-06-04T20:56:16.663Z,16.14
2023-06-04T20:58:44.183Z,16.14
2023-06-04T21:01:13.083Z,16.10
2023-06-04T21:03:40.679Z,16.06
2023-06-04T21:06:08.705Z,16.02
2023-06-04T21:08:36.792Z,15.97
2023-06-04T21:11:04.237Z,15.94
2023-06-04T21:13:31.653Z,15.90
2023-06-04T21:15:59.085Z,15.85
2023-06-04T21:18:26.923Z,15.80
2023-06-04T21:20:54.561Z,15.75
2023-06-04T21:23:22.515Z,15.68
2023-06-04T21:25:50.785Z,15.60
2023-06-04T21:28:18.191Z,15.49
2023-06-04T21:30:45.557Z,15.38
2023-06-04T21:33:13.146Z,15.28
2023-06-04T21:35:40.577Z,15.21
2023-06-04T21:38:07.979Z,15.14
2023-06-04T21:40:35.482Z,15.11
2023-06-04T21:43:02.894Z,15.07
2023-06-04T21:45:30.583Z,15.06
2023-06-04T21:47:58.697Z,15.03
2023-06-04T21:50:26.230Z,15.02
2023-06-04T21:52:53.824Z,15.00
2023-06-04T21:55:21.272Z,14.97
2023-06-04T21:57:48.752Z,14.92
2023-06-04T22:00:16.977Z,14.83
2023-06-04T22:02:44.609Z,14.71
2023-06-04T22:05:12.674Z,14.60
2023-06-04T22:07:40.274Z,14.50
2023-06-04T22:10:08.512Z,14.46
2023-06-04T22:12:35.986Z,14.43
2023-06-04T22:15:03.955Z,14.37
2023-06-04T22:17:31.462Z,14.33
2023-06-04T22:19:59.021Z,14.28
2023-06-04T22:22:26.401Z,14.24
2023-06-04T22:24:53.876Z,14.21
2023-06-04T22:27:21.297Z,14.16
2023-06-04T22:41:23.579Z,14.45
2023-06-04T22:43:50.997Z,14.50
2023-06-04T22:46:18.372Z,14.48
2023-06-04T22:48:45.866Z,14.47
2023-06-04T22:51:13.358Z,14.49
2023-06-04T22:53:41.068Z,14.51
2023-06-04T22:56:10.465Z,14.52
2023-06-04T22:58:38.369Z,14.51
2023-06-04T23:01:05.860Z,14.48
2023-06-04T23:03:33.745Z,14.39
2023-06-04T23:06:01.992Z,14.29
2023-06-04T23:08:29.369Z,14.24
2023-06-04T23:10:56.753Z,14.20
2023-06-04T23:13:24.168Z,14.18
2023-06-04T23:15:51.677Z,14.16
2023-06-04T23:18:19.209Z,14.15
2023-06-04T23:20:49.138Z,14.15
2023-06-04T23:23:16.564Z,14.15
2023-06-04T23:25:43.934Z,14.16
2023-06-04T23:28:11.488Z,14.16
2023-06-04T23:30:38.882Z,14.15
2023-06-04T23:33:06.412Z,14.13
2023-06-04T23:35:34.236Z,14.10
2023-06-04T23:38:02.310Z,14.06
2023-06-04T23:40:29.797Z,14.03
2023-06-04T23:42:57.293Z,14.00
2023-06-04T23:45:24.802Z,13.97
2023-06-04T23:47:52.574Z,13.93
2023-06-04T23:50:20.075Z,13.89
2023-06-04T23:52:47.567Z,13.87
2023-06-04T23:55:15.132Z,13.84
2023-06-04T23:57:42.783Z,13.81
